sensor_id;sensor_type;location;lat;lon;timestamp;P1;durP1;ratioP1;P2;durP2;ratioP2
26502;SDS011;14177;51.520;6.764;2023-03-03T00:05:56;60.20;;;23.70;;
26502;SDS011;14177;51.520;6.764;2023-03-03T00:09:18;67.45;;;27.17;;
26502;SDS011;14177;51.520;6.764;2023-03-03T00:12:30;72.18;;;27.95;;
26502;SDS011;14177;51.520;6.764;2023-03-03T00:15:48;63.10;;;28.10;;
26502;SDS011;14177;51.520;6.764;2023-03-03T00:18:47;71.05;;;31.38;;
26502;SDS011;14177;51.520;6.764;2023-03-03T00:22:13;69.80;;;28.80;;
26502;SDS011;14177;51.520;6.764;2023-03-03T00:25:40;83.50;;;31.70;;
26502;SDS011;14177;51.520;6.764;2023-03-03T00:28:56;75.40;;;30.30;;
26502;SDS011;14177;51.520;6.764;2023-03-03T00:32:32;77.15;;;30.30;;
26502;SDS011;14177;51.520;6.764;2023-03-03T00:35:54;70.70;;;27.15;;
26502;SDS011;14177;51.520;6.764;2023-03-03T00:38:50;61.15;;;25.80;;
26502;SDS011;14177;51.520;6.764;2023-03-03T00:41:28;56.90;;;24.88;;
26502;SDS011;14177;51.520;6.764;2023-03-03T00:47:36;62.80;;;25.73;;
26502;SDS011;14177;51.520;6.764;2023-03-03T00:50:21;64.88;;;27.50;;
26502;SDS011;14177;51.520;6.764;2023-03-03T00:53:34;68.80;;;28.35;;
26502;SDS011;14177;51.520;6.764;2023-03-03T00:56:26;68.57;;;27.13;;
26502;SDS011;14177;51.520;6.764;2023-03-03T00:59:32;62.95;;;26.95;;
26502;SDS011;14177;51.520;6.764;2023-03-03T01:02:34;61.47;;;26.88;;
26502;SDS011;14177;51.520;6.764;2023-03-03T01:05:44;65.20;;;25.83;;
26502;SDS011;14177;51.520;6.764;2023-03-03T01:08:25;60.50;;;23.45;;
26502;SDS011;14177;51.520;6.764;2023-03-03T01:11:07;61.70;;;24.95;;
26502;SDS011;14177;51.520;6.764;2023-03-03T01:14:09;58.92;;;23.67;;
26502;SDS011;14177;51.520;6.764;2023-03-03T01:16:57;58.70;;;25.67;;
26502;SDS011;14177;51.520;6.764;2023-03-03T01:20:18;52.33;;;23.33;;
26502;SDS011;14177;51.520;6.764;2023-03-03T01:23:51;48.53;;;21.23;;
26502;SDS011;14177;51.520;6.764;2023-03-03T01:26:56;48.67;;;23.05;;
26502;SDS011;14177;51.520;6.764;2023-03-03T01:30:11;57.63;;;25.55;;
26502;SDS011;14177;51.520;6.764;2023-03-03T01:33:03;57.60;;;24.58;;
26502;SDS011;14177;51.520;6.764;2023-03-03T01:35:47;48.45;;;22.95;;
26502;SDS011;14177;51.520;6.764;2023-03-03T01:38:31;47.35;;;21.50;;
26502;SDS011;14177;51.520;6.764;2023-03-03T01:41:20;49.90;;;22.38;;
26502;SDS011;14177;51.520;6.764;2023-03-03T01:44:28;37.90;;;17.98;;
26502;SDS011;14177;51.520;6.764;2023-03-03T01:47:29;41.88;;;19.45;;
26502;SDS011;14177;51.520;6.764;2023-03-03T01:50:44;44.33;;;18.95;;
26502;SDS011;14177;51.520;6.764;2023-03-03T01:58:08;43.15;;;19.95;;
26502;SDS011;14177;51.520;6.764;2023-03-03T02:01:26;45.20;;;19.98;;
26502;SDS011;14177;51.520;6.764;2023-03-03T02:04:17;45.45;;;19.77;;
26502;SDS011;14177;51.520;6.764;2023-03-03T02:07:12;43.45;;;17.67;;
26502;SDS011;14177;51.520;6.764;2023-03-03T02:10:20;44.40;;;19.98;;
26502;SDS011;14177;51.520;6.764;2023-03-03T02:13:38;42.00;;;19.05;;
26502;SDS011;14177;51.520;6.764;2023-03-03T02:16:17;43.08;;;19.48;;
26502;SDS011;14177;51.520;6.764;2023-03-03T02:26:39;45.45;;;19.95;;
26502;SDS011;14177;51.520;6.764;2023-03-03T02:29:55;56.08;;;22.33;;
26502;SDS011;14177;51.520;6.764;2023-03-03T02:33:16;52.33;;;21.40;;
26502;SDS011;14177;51.520;6.764;2023-03-03T02:36:36;34.38;;;18.00;;
26502;SDS011;14177;51.520;6.764;2023-03-03T02:39:25;35.65;;;16.00;;
26502;SDS011;14177;51.520;6.764;2023-03-03T02:45:14;37.22;;;16.27;;
26502;SDS011;14177;51.520;6.764;2023-03-03T02:48:08;36.72;;;16.55;;
26502;SDS011;14177;51.520;6.764;2023-03-03T02:50:53;36.83;;;17.48;;
26502;SDS011;14177;51.520;6.764;2023-03-03T02:53:39;45.25;;;18.05;;
26502;SDS011;14177;51.520;6.764;2023-03-03T02:56:13;41.67;;;17.17;;
26502;SDS011;14177;51.520;6.764;2023-03-03T02:58:44;34.80;;;16.15;;
26502;SDS011;14177;51.520;6.764;2023-03-03T03:01:12;37.08;;;17.08;;
26502;SDS011;14177;51.520;6.764;2023-03-03T03:04:31;41.10;;;18.52;;
26502;SDS011;14177;51.520;6.764;2023-03-03T03:07:27;46.58;;;17.30;;
26502;SDS011;14177;51.520;6.764;2023-03-03T03:10:30;45.83;;;18.60;;
26502;SDS011;14177;51.520;6.764;2023-03-03T03:13:13;45.00;;;19.52;;
26502;SDS011;14177;51.520;6.764;2023-03-03T03:15:50;48.72;;;19.45;;
26502;SDS011;14177;51.520;6.764;2023-03-03T03:18:46;48.13;;;19.25;;
26502;SDS011;14177;51.520;6.764;2023-03-03T03:21:26;48.83;;;20.05;;
26502;SDS011;14177;51.520;6.764;2023-03-03T03:24:28;48.38;;;20.70;;
26502;SDS011;14177;51.520;6.764;2023-03-03T03:27:29;42.67;;;19.73;;
26502;SDS011;14177;51.520;6.764;2023-03-03T03:30:26;38.10;;;16.58;;
26502;SDS011;14177;51.520;6.764;2023-03-03T03:33:27;41.95;;;16.98;;
26502;SDS011;14177;51.520;6.764;2023-03-03T03:36:14;41.47;;;17.20;;
26502;SDS011;14177;51.520;6.764;2023-03-03T03:38:58;39.42;;;16.98;;
26502;SDS011;14177;51.520;6.764;2023-03-03T03:42:04;36.22;;;15.73;;
26502;SDS011;14177;51.520;6.764;2023-03-03T03:44:46;35.85;;;17.02;;
26502;SDS011;14177;51.520;6.764;2023-03-03T03:47:31;35.33;;;16.13;;
26502;SDS011;14177;51.520;6.764;2023-03-03T03:50:25;33.70;;;14.65;;
26502;SDS011;14177;51.520;6.764;2023-03-03T03:53:00;39.35;;;16.00;;
26502;SDS011;14177;51.520;6.764;2023-03-03T03:55:59;37.58;;;16.38;;
26502;SDS011;14177;51.520;6.764;2023-03-03T03:59:21;37.53;;;16.50;;
26502;SDS011;14177;51.520;6.764;2023-03-03T04:02:25;39.70;;;16.50;;
26502;SDS011;14177;51.520;6.764;2023-03-03T04:05:47;33.22;;;15.52;;
26502;SDS011;14177;51.520;6.764;2023-03-03T04:08:34;43.13;;;16.63;;
26502;SDS011;14177;51.520;6.764;2023-03-03T04:11:18;35.45;;;15.25;;
26502;SDS011;14177;51.520;6.764;2023-03-03T04:14:10;38.88;;;15.95;;
26502;SDS011;14177;51.520;6.764;2023-03-03T04:16:45;39.95;;;15.50;;
26502;SDS011;14177;51.520;6.764;2023-03-03T04:19:40;35.30;;;16.83;;
26502;SDS011;14177;51.520;6.764;2023-03-03T04:22:54;36.88;;;16.20;;
26502;SDS011;14177;51.520;6.764;2023-03-03T04:26:18;34.22;;;15.13;;
26502;SDS011;14177;51.520;6.764;2023-03-03T04:29:23;32.65;;;14.88;;
26502;SDS011;14177;51.520;6.764;2023-03-03T04:32:55;36.22;;;16.27;;
26502;SDS011;14177;51.520;6.764;2023-03-03T04:36:35;38.17;;;16.27;;
26502;SDS011;14177;51.520;6.764;2023-03-03T04:43:22;33.30;;;15.02;;
26502;SDS011;14177;51.520;6.764;2023-03-03T04:47:04;38.85;;;17.05;;
26502;SDS011;14177;51.520;6.764;2023-03-03T04:54:34;42.65;;;17.33;;
26502;SDS011;14177;51.520;6.764;2023-03-03T04:58:19;38.03;;;17.88;;
26502;SDS011;14177;51.520;6.764;2023-03-03T05:04:50;39.35;;;17.85;;
26502;SDS011;14177;51.520;6.764;2023-03-03T05:08:10;41.40;;;17.83;;
26502;SDS011;14177;51.520;6.764;2023-03-03T05:11:50;44.58;;;18.42;;
26502;SDS011;14177;51.520;6.764;2023-03-03T05:15:38;42.63;;;18.10;;
26502;SDS011;14177;51.520;6.764;2023-03-03T05:18:26;47.08;;;18.23;;
26502;SDS011;14177;51.520;6.764;2023-03-03T05:21:53;39.35;;;18.23;;
26502;SDS011;14177;51.520;6.764;2023-03-03T05:25:03;42.92;;;17.42;;
26502;SDS011;14177;51.520;6.764;2023-03-03T05:28:24;44.67;;;19.05;;
26502;SDS011;14177;51.520;6.764;2023-03-03T05:31:23;40.70;;;18.63;;
26502;SDS011;14177;51.520;6.764;2023-03-03T05:34:38;45.50;;;19.67;;
26502;SDS011;14177;51.520;6.764;2023-03-03T05:37:19;47.33;;;19.65;;
26502;SDS011;14177;51.520;6.764;2023-03-03T05:44:45;40.78;;;18.20;;
26502;SDS011;14177;51.520;6.764;2023-03-03T05:47:16;42.58;;;18.58;;
26502;SDS011;14177;51.520;6.764;2023-03-03T05:50:08;42.42;;;18.45;;
26502;SDS011;14177;51.520;6.764;2023-03-03T05:53:44;43.85;;;18.77;;
26502;SDS011;14177;51.520;6.764;2023-03-03T05:56:47;45.78;;;19.55;;
26502;SDS011;14177;51.520;6.764;2023-03-03T05:59:38;45.03;;;19.10;;
26502;SDS011;14177;51.520;6.764;2023-03-03T06:03:04;50.85;;;18.60;;
26502;SDS011;14177;51.520;6.764;2023-03-03T06:06:34;52.30;;;20.23;;
26502;SDS011;14177;51.520;6.764;2023-03-03T06:09:10;55.97;;;21.15;;
26502;SDS011;14177;51.520;6.764;2023-03-03T06:11:39;50.47;;;20.52;;
26502;SDS011;14177;51.520;6.764;2023-03-03T06:14:14;51.55;;;20.00;;
26502;SDS011;14177;51.520;6.764;2023-03-03T06:16:52;59.90;;;21.30;;
26502;SDS011;14177;51.520;6.764;2023-03-03T06:19:19;60.92;;;23.83;;
26502;SDS011;14177;51.520;6.764;2023-03-03T06:21:46;53.67;;;21.80;;
26502;SDS011;14177;51.520;6.764;2023-03-03T06:24:13;56.10;;;22.02;;
26502;SDS011;14177;51.520;6.764;2023-03-03T06:26:40;55.90;;;23.30;;
26502;SDS011;14177;51.520;6.764;2023-03-03T06:29:07;60.65;;;24.90;;
26502;SDS011;14177;51.520;6.764;2023-03-03T06:31:34;59.72;;;22.27;;
26502;SDS011;14177;51.520;6.764;2023-03-03T06:34:02;55.03;;;22.48;;
26502;SDS011;14177;51.520;6.764;2023-03-03T06:36:32;48.35;;;19.75;;
26502;SDS011;14177;51.520;6.764;2023-03-03T06:38:59;49.28;;;20.13;;
26502;SDS011;14177;51.520;6.764;2023-03-03T06:41:26;54.85;;;21.27;;
26502;SDS011;14177;51.520;6.764;2023-03-03T06:43:54;53.17;;;20.80;;
26502;SDS011;14177;51.520;6.764;2023-03-03T06:46:26;54.80;;;22.83;;
26502;SDS011;14177;51.520;6.764;2023-03-03T06:48:53;55.17;;;23.30;;
26502;SDS011;14177;51.520;6.764;2023-03-03T06:51:32;50.92;;;19.83;;
26502;SDS011;14177;51.520;6.764;2023-03-03T06:54:10;53.50;;;21.02;;
26502;SDS011;14177;51.520;6.764;2023-03-03T06:56:44;55.75;;;22.83;;
26502;SDS011;14177;51.520;6.764;2023-03-03T06:59:18;58.40;;;23.63;;
26502;SDS011;14177;51.520;6.764;2023-03-03T07:01:49;51.97;;;22.98;;
26502;SDS011;14177;51.520;6.764;2023-03-03T07:04:32;65.65;;;23.27;;
26502;SDS011;14177;51.520;6.764;2023-03-03T07:07:19;55.75;;;22.95;;
26502;SDS011;14177;51.520;6.764;2023-03-03T07:09:55;53.70;;;22.38;;
26502;SDS011;14177;51.520;6.764;2023-03-03T07:12:28;63.85;;;24.58;;
26502;SDS011;14177;51.520;6.764;2023-03-03T07:15:15;61.80;;;24.65;;
26502;SDS011;14177;51.520;6.764;2023-03-03T07:17:52;62.72;;;23.40;;
26502;SDS011;14177;51.520;6.764;2023-03-03T07:20:32;59.58;;;23.67;;
26502;SDS011;14177;51.520;6.764;2023-03-03T07:26:10;55.80;;;21.92;;
26502;SDS011;14177;51.520;6.764;2023-03-03T07:28:49;59.60;;;23.92;;
26502;SDS011;14177;51.520;6.764;2023-03-03T07:31:27;66.85;;;24.95;;
26502;SDS011;14177;51.520;6.764;2023-03-03T07:34:04;60.10;;;23.35;;
26502;SDS011;14177;51.520;6.764;2023-03-03T07:37:15;43.58;;;18.25;;
26502;SDS011;14177;51.520;6.764;2023-03-03T07:39:51;47.38;;;18.52;;
26502;SDS011;14177;51.520;6.764;2023-03-03T07:42:52;42.78;;;16.15;;
26502;SDS011;14177;51.520;6.764;2023-03-03T07:45:35;39.65;;;15.75;;
26502;SDS011;14177;51.520;6.764;2023-03-03T07:51:21;39.55;;;16.23;;
26502;SDS011;14177;51.520;6.764;2023-03-03T07:57:19;42.70;;;16.65;;
26502;SDS011;14177;51.520;6.764;2023-03-03T08:05:35;41.35;;;16.88;;
26502;SDS011;14177;51.520;6.764;2023-03-03T08:10:35;35.80;;;14.80;;
26502;SDS011;14177;51.520;6.764;2023-03-03T08:13:21;37.78;;;15.13;;
26502;SDS011;14177;51.520;6.764;2023-03-03T08:15:58;37.38;;;15.32;;
26502;SDS011;14177;51.520;6.764;2023-03-03T08:18:36;38.00;;;14.77;;
26502;SDS011;14177;51.520;6.764;2023-03-03T08:21:16;31.30;;;13.88;;
26502;SDS011;14177;51.520;6.764;2023-03-03T08:24:06;27.13;;;10.63;;
26502;SDS011;14177;51.520;6.764;2023-03-03T08:26:33;28.00;;;10.77;;
26502;SDS011;14177;51.520;6.764;2023-03-03T08:29:00;37.13;;;11.68;;
26502;SDS011;14177;51.520;6.764;2023-03-03T08:31:28;31.48;;;11.80;;
26502;SDS011;14177;51.520;6.764;2023-03-03T08:34:07;30.05;;;12.35;;
26502;SDS011;14177;51.520;6.764;2023-03-03T08:36:34;32.05;;;12.95;;
26502;SDS011;14177;51.520;6.764;2023-03-03T08:39:02;37.50;;;13.77;;
26502;SDS011;14177;51.520;6.764;2023-03-03T08:41:30;34.63;;;13.52;;
26502;SDS011;14177;51.520;6.764;2023-03-03T08:43:57;32.70;;;12.38;;
26502;SDS011;14177;51.520;6.764;2023-03-03T08:46:24;33.38;;;12.35;;
26502;SDS011;14177;51.520;6.764;2023-03-03T08:48:53;34.08;;;12.48;;
26502;SDS011;14177;51.520;6.764;2023-03-03T08:51:20;34.92;;;13.80;;
26502;SDS011;14177;51.520;6.764;2023-03-03T08:53:47;36.38;;;13.38;;
26502;SDS011;14177;51.520;6.764;2023-03-03T08:56:14;44.60;;;18.02;;
26502;SDS011;14177;51.520;6.764;2023-03-03T08:58:42;47.47;;;16.73;;
26502;SDS011;14177;51.520;6.764;2023-03-03T09:01:27;44.85;;;16.50;;
26502;SDS011;14177;51.520;6.764;2023-03-03T09:03:55;42.95;;;16.27;;
26502;SDS011;14177;51.520;6.764;2023-03-03T09:06:22;42.67;;;16.85;;
26502;SDS011;14177;51.520;6.764;2023-03-03T09:08:50;46.03;;;16.90;;
26502;SDS011;14177;51.520;6.764;2023-03-03T09:11:24;49.65;;;17.95;;
26502;SDS011;14177;51.520;6.764;2023-03-03T09:14:10;47.72;;;17.90;;
26502;SDS011;14177;51.520;6.764;2023-03-03T09:16:41;48.08;;;18.75;;
26502;SDS011;14177;51.520;6.764;2023-03-03T09:19:32;55.75;;;20.25;;
26502;SDS011;14177;51.520;6.764;2023-03-03T09:22:22;58.33;;;21.77;;
26502;SDS011;14177;51.520;6.764;2023-03-03T09:24:52;57.78;;;21.80;;
26502;SDS011;14177;51.520;6.764;2023-03-03T09:27:28;66.53;;;23.83;;
26502;SDS011;14177;51.520;6.764;2023-03-03T09:30:11;62.65;;;22.13;;
26502;SDS011;14177;51.520;6.764;2023-03-03T09:33:01;61.10;;;21.92;;
26502;SDS011;14177;51.520;6.764;2023-03-03T09:39:26;62.00;;;22.48;;
26502;SDS011;14177;51.520;6.764;2023-03-03T09:47:46;60.58;;;22.67;;
26502;SDS011;14177;51.520;6.764;2023-03-03T10:05:10;49.50;;;17.67;;
26502;SDS011;14177;51.520;6.764;2023-03-03T10:11:12;52.83;;;21.38;;
26502;SDS011;14177;51.520;6.764;2023-03-03T10:23:18;48.88;;;18.98;;
26502;SDS011;14177;51.520;6.764;2023-03-03T10:26:37;47.75;;;18.02;;
26502;SDS011;14177;51.520;6.764;2023-03-03T10:29:54;39.65;;;16.00;;
26502;SDS011;14177;51.520;6.764;2023-03-03T10:32:29;36.60;;;14.18;;
26502;SDS011;14177;51.520;6.764;2023-03-03T10:35:31;45.38;;;16.08;;
26502;SDS011;14177;51.520;6.764;2023-03-03T10:40:54;51.60;;;23.33;;
26502;SDS011;14177;51.520;6.764;2023-03-03T10:47:18;43.92;;;18.35;;
26502;SDS011;14177;51.520;6.764;2023-03-03T10:59:29;60.00;;;21.33;;
26502;SDS011;14177;51.520;6.764;2023-03-03T11:05:01;48.58;;;20.00;;
26502;SDS011;14177;51.520;6.764;2023-03-03T11:07:49;51.13;;;19.10;;
26502;SDS011;14177;51.520;6.764;2023-03-03T11:10:44;46.33;;;17.75;;
26502;SDS011;14177;51.520;6.764;2023-03-03T11:16:40;39.42;;;15.82;;
26502;SDS011;14177;51.520;6.764;2023-03-03T11:44:20;43.30;;;19.15;;
26502;SDS011;14177;51.520;6.764;2023-03-03T11:46:55;48.63;;;19.88;;
26502;SDS011;14177;51.520;6.764;2023-03-03T11:52:31;44.80;;;20.40;;
26502;SDS011;14177;51.520;6.764;2023-03-03T12:00:36;41.25;;;18.55;;
26502;SDS011;14177;51.520;6.764;2023-03-03T12:06:37;35.20;;;15.93;;
26502;SDS011;14177;51.520;6.764;2023-03-03T12:12:37;39.83;;;16.63;;
26502;SDS011;14177;51.520;6.764;2023-03-03T12:15:21;31.13;;;14.02;;
26502;SDS011;14177;51.520;6.764;2023-03-03T12:27:06;37.47;;;15.90;;
26502;SDS011;14177;51.520;6.764;2023-03-03T12:35:58;29.60;;;13.77;;
26502;SDS011;14177;51.520;6.764;2023-03-03T12:41:38;30.50;;;14.00;;
26502;SDS011;14177;51.520;6.764;2023-03-03T12:44:20;39.33;;;15.95;;
26502;SDS011;14177;51.520;6.764;2023-03-03T12:49:41;27.08;;;12.25;;
26502;SDS011;14177;51.520;6.764;2023-03-03T12:52:48;29.67;;;15.65;;
26502;SDS011;14177;51.520;6.764;2023-03-03T12:58:24;30.05;;;14.88;;
26502;SDS011;14177;51.520;6.764;2023-03-03T13:09:32;33.83;;;15.90;;
26502;SDS011;14177;51.520;6.764;2023-03-03T13:12:27;32.45;;;15.13;;
26502;SDS011;14177;51.520;6.764;2023-03-03T13:15:27;26.02;;;11.55;;
26502;SDS011;14177;51.520;6.764;2023-03-03T13:18:15;26.38;;;11.43;;
26502;SDS011;14177;51.520;6.764;2023-03-03T13:21:18;25.98;;;12.65;;
26502;SDS011;14177;51.520;6.764;2023-03-03T13:24:14;31.73;;;13.73;;
26502;SDS011;14177;51.520;6.764;2023-03-03T13:26:57;26.05;;;13.23;;
26502;SDS011;14177;51.520;6.764;2023-03-03T13:29:43;27.63;;;12.55;;
26502;SDS011;14177;51.520;6.764;2023-03-03T13:35:32;28.25;;;13.48;;
26502;SDS011;14177;51.520;6.764;2023-03-03T13:38:39;30.05;;;13.25;;
26502;SDS011;14177;51.520;6.764;2023-03-03T13:44:00;21.35;;;11.02;;
26502;SDS011;14177;51.520;6.764;2023-03-03T13:46:42;20.35;;;10.25;;
26502;SDS011;14177;51.520;6.764;2023-03-03T13:52:05;18.88;;;9.45;;
26502;SDS011;14177;51.520;6.764;2023-03-03T13:54:51;19.08;;;9.70;;
26502;SDS011;14177;51.520;6.764;2023-03-03T13:57:54;20.17;;;9.55;;
26502;SDS011;14177;51.520;6.764;2023-03-03T14:00:35;19.63;;;9.70;;
26502;SDS011;14177;51.520;6.764;2023-03-03T14:03:31;21.23;;;9.85;;
26502;SDS011;14177;51.520;6.764;2023-03-03T14:06:18;21.35;;;9.45;;
26502;SDS011;14177;51.520;6.764;2023-03-03T14:14:43;22.52;;;10.02;;
26502;SDS011;14177;51.520;6.764;2023-03-03T14:20:38;22.65;;;10.65;;
26502;SDS011;14177;51.520;6.764;2023-03-03T14:23:15;22.38;;;9.98;;
26502;SDS011;14177;51.520;6.764;2023-03-03T14:28:47;22.52;;;10.02;;
26502;SDS011;14177;51.520;6.764;2023-03-03T14:36:41;21.45;;;9.60;;
26502;SDS011;14177;51.520;6.764;2023-03-03T14:42:09;24.27;;;10.85;;
26502;SDS011;14177;51.520;6.764;2023-03-03T14:44:59;22.83;;;10.68;;
26502;SDS011;14177;51.520;6.764;2023-03-03T14:47:54;22.92;;;10.52;;
26502;SDS011;14177;51.520;6.764;2023-03-03T14:53:06;22.92;;;10.63;;
26502;SDS011;14177;51.520;6.764;2023-03-03T14:55:46;20.83;;;10.25;;
26502;SDS011;14177;51.520;6.764;2023-03-03T14:58:31;23.98;;;11.00;;
26502;SDS011;14177;51.520;6.764;2023-03-03T15:06:33;22.63;;;9.73;;
26502;SDS011;14177;51.520;6.764;2023-03-03T15:17:37;23.90;;;10.30;;
26502;SDS011;14177;51.520;6.764;2023-03-03T15:26:12;22.63;;;10.85;;
26502;SDS011;14177;51.520;6.764;2023-03-03T15:34:57;21.02;;;9.73;;
26502;SDS011;14177;51.520;6.764;2023-03-03T15:37:46;19.42;;;9.55;;
26502;SDS011;14177;51.520;6.764;2023-03-03T15:46:18;19.95;;;10.00;;
26502;SDS011;14177;51.520;6.764;2023-03-03T15:58:31;24.75;;;10.30;;
26502;SDS011;14177;51.520;6.764;2023-03-03T16:03:46;20.15;;;8.63;;
26502;SDS011;14177;51.520;6.764;2023-03-03T16:12:02;16.38;;;9.07;;
26502;SDS011;14177;51.520;6.764;2023-03-03T16:17:41;21.05;;;9.63;;
26502;SDS011;14177;51.520;6.764;2023-03-03T16:23:46;16.05;;;8.90;;
26502;SDS011;14177;51.520;6.764;2023-03-03T16:34:18;17.02;;;8.88;;
26502;SDS011;14177;51.520;6.764;2023-03-03T16:42:30;15.98;;;8.85;;
26502;SDS011;14177;51.520;6.764;2023-03-03T16:56:45;16.05;;;9.18;;
26502;SDS011;14177;51.520;6.764;2023-03-03T17:16:59;15.10;;;8.63;;
26502;SDS011;14177;51.520;6.764;2023-03-03T17:22:45;23.13;;;10.77;;
26502;SDS011;14177;51.520;6.764;2023-03-03T18:33:40;26.83;;;12.82;;
26502;SDS011;14177;51.520;6.764;2023-03-03T18:38:53;26.27;;;12.43;;
26502;SDS011;14177;51.520;6.764;2023-03-03T18:41:26;24.55;;;13.10;;
26502;SDS011;14177;51.520;6.764;2023-03-03T18:43:59;25.38;;;14.63;;
26502;SDS011;14177;51.520;6.764;2023-03-03T18:46:48;29.15;;;13.10;;
26502;SDS011;14177;51.520;6.764;2023-03-03T18:49:17;26.77;;;13.25;;
26502;SDS011;14177;51.520;6.764;2023-03-03T18:52:17;29.25;;;14.63;;
26502;SDS011;14177;51.520;6.764;2023-03-03T18:57:37;22.98;;;12.50;;
26502;SDS011;14177;51.520;6.764;2023-03-03T19:00:13;28.85;;;14.98;;
26502;SDS011;14177;51.520;6.764;2023-03-03T19:02:50;30.80;;;13.17;;
26502;SDS011;14177;51.520;6.764;2023-03-03T19:05:21;27.63;;;13.07;;
26502;SDS011;14177;51.520;6.764;2023-03-03T19:20:39;22.80;;;12.00;;
26502;SDS011;14177;51.520;6.764;2023-03-03T19:24:01;16.05;;;8.13;;
26502;SDS011;14177;51.520;6.764;2023-03-03T19:26:39;21.48;;;10.52;;
26502;SDS011;14177;51.520;6.764;2023-03-03T19:38:56;8.20;;;4.30;;
26502;SDS011;14177;51.520;6.764;2023-03-03T19:51:58;8.18;;;4.70;;
26502;SDS011;14177;51.520;6.764;2023-03-03T20:04:24;10.05;;;5.30;;
26502;SDS011;14177;51.520;6.764;2023-03-03T20:07:22;10.48;;;5.30;;
26502;SDS011;14177;51.520;6.764;2023-03-03T20:10:27;6.80;;;4.00;;
26502;SDS011;14177;51.520;6.764;2023-03-03T20:13:27;6.20;;;3.65;;
26502;SDS011;14177;51.520;6.764;2023-03-03T20:16:39;8.60;;;4.55;;
26502;SDS011;14177;51.520;6.764;2023-03-03T20:27:33;6.72;;;3.53;;
26502;SDS011;14177;51.520;6.764;2023-03-03T20:42:48;9.18;;;3.97;;
26502;SDS011;14177;51.520;6.764;2023-03-03T20:45:36;5.75;;;3.97;;
26502;SDS011;14177;51.520;6.764;2023-03-03T20:51:38;6.53;;;3.75;;
26502;SDS011;14177;51.520;6.764;2023-03-03T20:54:29;6.60;;;4.75;;
26502;SDS011;14177;51.520;6.764;2023-03-03T20:57:22;7.45;;;4.53;;
26502;SDS011;14177;51.520;6.764;2023-03-03T21:00:14;5.75;;;4.32;;
26502;SDS011;14177;51.520;6.764;2023-03-03T21:06:10;8.32;;;5.60;;
26502;SDS011;14177;51.520;6.764;2023-03-03T21:08:51;9.48;;;6.15;;
26502;SDS011;14177;51.520;6.764;2023-03-03T21:14:00;8.80;;;6.88;;
26502;SDS011;14177;51.520;6.764;2023-03-03T21:19:53;10.18;;;7.50;;
26502;SDS011;14177;51.520;6.764;2023-03-03T21:22:20;12.07;;;7.35;;
26502;SDS011;14177;51.520;6.764;2023-03-03T21:24:48;15.35;;;8.82;;
26502;SDS011;14177;51.520;6.764;2023-03-03T21:32:41;12.48;;;6.90;;
26502;SDS011;14177;51.520;6.764;2023-03-03T21:37:52;10.60;;;5.30;;
26502;SDS011;14177;51.520;6.764;2023-03-03T21:40:22;8.85;;;6.10;;
26502;SDS011;14177;51.520;6.764;2023-03-03T21:42:54;14.82;;;6.10;;
26502;SDS011;14177;51.520;6.764;2023-03-03T21:45:24;13.80;;;4.47;;
26502;SDS011;14177;51.520;6.764;2023-03-03T21:48:09;10.50;;;4.93;;
26502;SDS011;14177;51.520;6.764;2023-03-03T21:50:36;10.10;;;3.58;;
26502;SDS011;14177;51.520;6.764;2023-03-03T21:53:06;6.38;;;3.67;;
26502;SDS011;14177;51.520;6.764;2023-03-03T21:55:34;12.63;;;4.65;;
26502;SDS011;14177;51.520;6.764;2023-03-03T21:58:01;7.13;;;4.03;;
26502;SDS011;14177;51.520;6.764;2023-03-03T22:00:28;11.60;;;4.03;;
26502;SDS011;14177;51.520;6.764;2023-03-03T22:02:55;6.38;;;3.92;;
26502;SDS011;14177;51.520;6.764;2023-03-03T22:05:22;10.48;;;3.20;;
26502;SDS011;14177;51.520;6.764;2023-03-03T22:07:59;8.20;;;3.63;;
26502;SDS011;14177;51.520;6.764;2023-03-03T22:10:26;9.48;;;3.42;;
26502;SDS011;14177;51.520;6.764;2023-03-03T22:12:56;12.27;;;3.78;;
26502;SDS011;14177;51.520;6.764;2023-03-03T22:15:25;10.75;;;3.15;;
26502;SDS011;14177;51.520;6.764;2023-03-03T22:17:55;10.07;;;3.85;;
26502;SDS011;14177;51.520;6.764;2023-03-03T22:20:22;11.10;;;3.10;;
26502;SDS011;14177;51.520;6.764;2023-03-03T22:22:49;10.38;;;3.10;;
26502;SDS011;14177;51.520;6.764;2023-03-03T22:25:17;8.07;;;2.60;;
26502;SDS011;14177;51.520;6.764;2023-03-03T22:27:44;11.77;;;3.05;;
26502;SDS011;14177;51.520;6.764;2023-03-03T22:30:11;10.80;;;3.30;;
26502;SDS011;14177;51.520;6.764;2023-03-03T22:32:39;13.35;;;3.30;;
26502;SDS011;14177;51.520;6.764;2023-03-03T22:35:06;15.60;;;3.42;;
26502;SDS011;14177;51.520;6.764;2023-03-03T22:37:33;13.25;;;2.88;;
26502;SDS011;14177;51.520;6.764;2023-03-03T22:40:00;13.52;;;3.38;;
26502;SDS011;14177;51.520;6.764;2023-03-03T22:42:27;14.82;;;3.35;;
26502;SDS011;14177;51.520;6.764;2023-03-03T22:44:54;7.40;;;2.90;;
26502;SDS011;14177;51.520;6.764;2023-03-03T22:47:21;11.00;;;3.13;;
26502;SDS011;14177;51.520;6.764;2023-03-03T22:49:48;14.77;;;3.33;;
26502;SDS011;14177;51.520;6.764;2023-03-03T22:52:15;14.23;;;3.35;;
26502;SDS011;14177;51.520;6.764;2023-03-03T22:54:41;11.85;;;3.13;;
26502;SDS011;14177;51.520;6.764;2023-03-03T22:57:08;9.93;;;3.20;;
26502;SDS011;14177;51.520;6.764;2023-03-03T22:59:35;12.45;;;2.80;;
26502;SDS011;14177;51.520;6.764;2023-03-03T23:02:02;17.58;;;3.33;;
26502;SDS011;14177;51.520;6.764;2023-03-03T23:04:29;13.25;;;3.67;;
26502;SDS011;14177;51.520;6.764;2023-03-03T23:06:58;11.95;;;3.03;;
26502;SDS011;14177;51.520;6.764;2023-03-03T23:09:26;15.35;;;3.35;;
26502;SDS011;14177;51.520;6.764;2023-03-03T23:11:54;16.40;;;3.05;;
26502;SDS011;14177;51.520;6.764;2023-03-03T23:14:21;12.30;;;2.97;;
26502;SDS011;14177;51.520;6.764;2023-03-03T23:16:48;8.00;;;3.22;;
26502;SDS011;14177;51.520;6.764;2023-03-03T23:19:15;15.48;;;3.33;;
26502;SDS011;14177;51.520;6.764;2023-03-03T23:21:42;20.65;;;3.33;;
26502;SDS011;14177;51.520;6.764;2023-03-03T23:24:09;8.70;;;2.60;;
26502;SDS011;14177;51.520;6.764;2023-03-03T23:26:37;14.13;;;3.53;;
26502;SDS011;14177;51.520;6.764;2023-03-03T23:29:04;12.85;;;3.10;;
26502;SDS011;14177;51.520;6.764;2023-03-03T23:31:31;13.82;;;3.00;;
26502;SDS011;14177;51.520;6.764;2023-03-03T23:33:58;15.15;;;2.75;;
26502;SDS011;14177;51.520;6.764;2023-03-03T23:36:25;13.10;;;3.00;;
26502;SDS011;14177;51.520;6.764;2023-03-03T23:38:51;16.15;;;3.13;;
26502;SDS011;14177;51.520;6.764;2023-03-03T23:41:18;11.18;;;2.80;;
26502;SDS011;14177;51.520;6.764;2023-03-03T23:43:45;10.98;;;2.95;;
26502;SDS011;14177;51.520;6.764;2023-03-03T23:46:12;11.13;;;3.25;;
26502;SDS011;14177;51.520;6.764;2023-03-03T23:48:40;8.30;;;3.25;;
26502;SDS011;14177;51.520;6.764;2023-03-03T23:51:07;9.15;;;3.20;;
26502;SDS011;14177;51.520;6.764;2023-03-03T23:53:34;11.55;;;3.42;;
26502;SDS011;14177;51.520;6.764;2023-03-03T23:56:01;11.68;;;3.30;;
26502;SDS011;14177;51.520;6.764;2023-03-03T23:58:28;11.48;;;2.97;;
